Time;durP1;ratioP1;P1;durP2;ratioP2;P2;SDS_P1;SDS_P2;PMS_P1;PMS_P2;Temp;Humidity;BMP_temperature;BMP_pressure;BME280_temperature;BME280_humidity;BME280_pressure;Samples;Min_cycle;Max_cycle;Signal;HPM_P1;HPM_P2
2021/06/06 00:00:41;;;;;;;25.42;23.02;;;;;;;19.52;100.00;101279.94;5068969;28;20675;-76
2021/06/06 00:03:20;;;;;;;25.83;23.52;;;;;;;19.64;100.00;101276.63;5094125;28;20190;-75
2021/06/06 00:06:04;;;;;;;27.02;24.42;;;;;;;19.73;100.00;101281.06;5050359;28;20227;-75
2021/06/06 00:08:46;;;;;;;26.20;23.65;;;;;;;19.72;100.00;101280.25;5070667;28;20305;-75
2021/06/06 00:11:21;;;;;;;25.83;23.38;;;;;;;19.64;100.00;101288.47;5076454;28;20624;-75
2021/06/06 00:14:02;;;;;;;24.98;22.58;;;;;;;19.61;100.00;101274.50;5061770;28;20243;-75
2021/06/06 00:16:39;;;;;;;26.25;23.75;;;;;;;19.52;100.00;101295.69;5075649;28;20236;-75
2021/06/06 00:19:16;;;;;;;24.95;22.60;;;;;;;19.62;100.00;101290.72;5062828;28;20202;-77
2021/06/06 00:21:53;;;;;;;26.75;24.17;;;;;;;19.67;100.00;101293.34;5058955;28;20856;-74
2021/06/06 00:24:36;;;;;;;26.40;23.90;;;;;;;19.67;100.00;101283.13;5078000;28;20163;-74
2021/06/06 00:27:11;;;;;;;24.15;21.75;;;;;;;19.60;100.00;101281.97;5077527;28;20266;-74
2021/06/06 00:29:37;;;;;;;23.48;21.30;;;;;;;19.56;100.00;101289.25;5060830;28;20247;-74
2021/06/06 00:32:44;;;;;;;24.38;22.08;;;;;;;19.63;100.00;101288.78;5077980;28;20560;-75
2021/06/06 00:35:14;;;;;;;24.23;21.92;;;;;;;19.66;100.00;101286.19;5075706;28;20244;-72
2021/06/06 00:37:55;;;;;;;25.02;22.63;;;;;;;19.61;100.00;101285.53;5058892;28;20194;-74
2021/06/06 00:40:36;;;;;;;24.10;21.80;;;;;;;19.60;100.00;101281.16;5053015;28;20194;-72
2021/06/06 00:43:17;;;;;;;24.98;22.58;;;;;;;19.67;100.00;101283.13;5062246;28;20611;-76
2021/06/06 00:45:45;;;;;;;24.52;22.15;;;;;;;19.53;100.00;101281.59;5060347;28;20225;-74
2021/06/06 00:48:20;;;;;;;23.95;21.67;;;;;;;19.60;100.00;101281.16;5062314;28;20208;-76
2021/06/06 00:51:03;;;;;;;24.52;22.00;;;;;;;19.52;100.00;101268.13;5048127;28;20667;-74
2021/06/06 00:54:03;;;;;;;23.95;21.70;;;;;;;19.62;100.00;101273.38;5061789;28;20185;-74
2021/06/06 00:56:53;;;;;;;27.25;23.65;;;;;;;19.48;100.00;101267.13;5049868;28;20615;-75
2021/06/06 00:59:23;;;;;;;25.83;23.33;;;;;;;19.39;100.00;101263.50;5058333;28;20217;-73
2021/06/06 01:02:04;;;;;;;27.15;24.45;;;;;;;19.28;100.00;101284.16;5049873;28;20298;-74
2021/06/06 01:04:40;;;;;;;29.88;26.77;;;;;;;19.30;100.00;101273.66;5074509;28;20244;-74
2021/06/06 01:07:07;;;;;;;34.70;30.98;;;;;;;19.29;100.00;101283.06;5091900;28;20241;-72
2021/06/06 01:09:37;;;;;;;33.70;30.27;;;;;;;19.33;100.00;101290.38;5060480;28;20198;-73
2021/06/06 01:12:21;;;;;;;36.58;32.55;;;;;;;19.32;100.00;101296.19;5092775;28;20228;-73
2021/06/06 01:15:20;;;;;;;37.63;32.92;;;;;;;18.99;100.00;101297.59;5078471;28;20228;-73
2021/06/06 01:18:23;;;;;;;38.95;34.10;;;;;;;19.02;100.00;101288.69;5095077;28;20229;-72
2021/06/06 01:21:26;;;;;;;41.30;35.10;;;;;;;18.86;100.00;101285.75;5070684;28;20763;-77
2021/06/06 01:24:42;;;;;;;40.22;35.88;;;;;;;18.94;100.00;101289.41;5078139;28;20198;-75
2021/06/06 01:27:31;;;;;;;47.05;38.60;;;;;;;18.96;100.00;101286.34;5074404;28;20304;-76
2021/06/06 01:30:34;;;;;;;46.38;39.70;;;;;;;18.84;100.00;101285.25;5081518;28;20209;-75
2021/06/06 01:33:09;;;;;;;50.70;40.15;;;;;;;18.77;100.00;101285.72;5049700;28;20248;-76
2021/06/06 01:35:49;;;;;;;48.97;41.58;;;;;;;18.65;100.00;101284.63;5068738;28;20590;-74
2021/06/06 01:38:52;;;;;;;53.58;42.00;;;;;;;18.86;100.00;101288.50;5079393;28;20274;-75
2021/06/06 01:41:49;;;;;;;53.42;42.58;;;;;;;18.57;100.00;101294.41;5078659;28;20235;-76
2021/06/06 01:45:05;;;;;;;58.42;43.85;;;;;;;18.62;100.00;101272.25;5080350;28;20174;-74
2021/06/06 01:47:35;;;;;;;63.83;45.35;;;;;;;18.78;100.00;101292.81;5073952;28;20214;-75
2021/06/06 01:50:10;;;;;;;62.53;45.15;;;;;;;18.77;100.00;101295.88;5060970;28;20216;-74
2021/06/06 01:52:44;;;;;;;62.67;45.80;;;;;;;18.78;100.00;101295.56;5050966;28;20307;-75
2021/06/06 01:55:24;;;;;;;59.45;44.03;;;;;;;18.69;100.00;101285.63;5049819;28;20170;-76
2021/06/06 01:57:59;;;;;;;62.22;46.10;;;;;;;18.87;100.00;101285.47;5078515;28;20205;-73
2021/06/06 02:01:05;;;;;;;61.05;45.30;;;;;;;18.73;100.00;101281.91;5054149;28;20237;-73
2021/06/06 02:03:43;;;;;;;57.92;44.72;;;;;;;18.53;100.00;101287.06;5077734;28;20205;-77
2021/06/06 02:07:08;;;;;;;53.53;42.45;;;;;;;18.53;100.00;101303.59;5078237;28;20263;-75
2021/06/06 02:09:48;;;;;;;58.35;41.42;;;;;;;18.49;100.00;101295.13;5062591;28;20210;-74
2021/06/06 02:12:34;;;;;;;60.30;42.50;;;;;;;18.60;100.00;101298.47;5092201;28;20225;-76
2021/06/06 02:15:30;;;;;;;57.70;42.33;;;;;;;18.59;100.00;101285.84;5066415;28;20567;-74
2021/06/06 02:18:24;;;;;;;58.88;42.75;;;;;;;18.72;100.00;101296.03;5069239;28;20206;-76
2021/06/06 02:21:16;;;;;;;59.75;42.42;;;;;;;18.59;100.00;101296.88;5058421;28;20257;-75
2021/06/06 02:23:58;;;;;;;58.60;42.20;;;;;;;18.66;100.00;101302.75;5076682;28;20191;-75
2021/06/06 02:27:09;;;;;;;58.30;42.30;;;;;;;18.57;100.00;101307.34;5062385;28;20286;-75
2021/06/06 02:29:55;;;;;;;60.28;42.38;;;;;;;18.62;100.00;101302.53;5061080;28;20213;-75
2021/06/06 02:33:13;;;;;;;69.05;44.30;;;;;;;18.66;100.00;101300.00;5075969;28;20593;-76
2021/06/06 02:36:05;;;;;;;60.40;41.72;;;;;;;18.41;100.00;101305.25;5061790;28;20201;-77
2021/06/06 02:39:19;;;;;;;58.15;42.40;;;;;;;18.56;100.00;101300.22;5069164;28;20202;-74
2021/06/06 02:42:40;;;;;;;59.42;43.05;;;;;;;18.51;100.00;101301.16;5078075;28;20234;-74
2021/06/06 02:45:11;;;;;;;62.78;42.22;;;;;;;18.58;100.00;101303.47;5082032;28;20217;-74
2021/06/06 02:47:40;;;;;;;61.90;43.35;;;;;;;18.71;100.00;101305.38;5061789;28;20210;-75
2021/06/06 02:50:20;;;;;;;60.90;44.22;;;;;;;18.59;100.00;101307.88;5086196;28;20280;-75
2021/06/06 02:53:12;;;;;;;62.03;42.17;;;;;;;18.53;100.00;101303.59;5078180;28;20251;-74
2021/06/06 02:55:51;;;;;;;60.63;43.25;;;;;;;18.76;100.00;101297.03;5049944;28;20214;-74
2021/06/06 02:58:30;;;;;;;58.65;42.65;;;;;;;18.68;100.00;101293.06;5063349;28;20225;-74
2021/06/06 03:03:54;;;;;;;62.53;42.67;;;;;;;18.66;100.00;101294.47;5078312;28;20208;-75
2021/06/06 03:06:52;;;;;;;60.20;41.67;;;;;;;18.48;100.00;101295.47;5050527;28;20221;-73
2021/06/06 03:09:27;;;;;;;60.20;42.13;;;;;;;18.62;100.00;101302.53;5065542;28;20581;-74
2021/06/06 03:12:15;;;;;;;58.83;41.95;;;;;;;18.64;100.00;101294.81;5062647;28;20218;-73
2021/06/06 03:14:45;;;;;;;62.90;43.28;;;;;;;18.67;100.00;101298.88;5046155;28;20200;-74
2021/06/06 03:17:33;;;;;;;61.05;41.80;;;;;;;18.63;100.00;101303.38;5053925;28;20251;-72
2021/06/06 03:20:14;;;;;;;55.50;40.63;;;;;;;18.57;100.00;101304.59;5061105;28;20202;-74
2021/06/06 03:22:44;;;;;;;60.58;42.30;;;;;;;18.53;100.00;101306.34;5059715;28;20240;-73
2021/06/06 03:25:21;;;;;;;60.08;42.08;;;;;;;18.53;100.00;101304.41;5068168;28;20181;-74
2021/06/06 03:27:51;;;;;;;60.03;41.78;;;;;;;18.50;100.00;101302.28;5093360;28;20185;-76
2021/06/06 03:30:41;;;;;;;60.38;42.42;;;;;;;18.60;100.00;101298.47;5055271;28;20197;-75
2021/06/06 03:33:21;;;;;;;61.50;43.25;;;;;;;18.49;100.00;101305.31;5078286;28;20166;-74
2021/06/06 03:36:06;;;;;;;61.15;42.58;;;;;;;18.39;100.00;101307.50;5061219;28;20268;-75
2021/06/06 03:38:35;;;;;;;67.28;44.35;;;;;;;18.39;100.00;101308.31;5061131;28;20265;-74
2021/06/06 03:41:02;;;;;;;61.15;43.10;;;;;;;18.11;100.00;101310.56;5058846;28;20627;-74
2021/06/06 03:43:42;;;;;;;60.78;41.90;;;;;;;18.22;100.00;101304.53;5061924;28;20235;-74
2021/06/06 03:46:09;;;;;;;62.88;42.22;;;;;;;18.49;100.00;101313.59;5054387;28;20225;-72
2021/06/06 03:48:46;;;;;;;64.60;43.10;;;;;;;18.38;100.00;101306.66;5077273;28;20210;-72
2021/06/06 03:51:19;;;;;;;63.05;42.88;;;;;;;18.45;100.00;101318.06;5072064;28;20217;-74
2021/06/06 03:54:14;;;;;;;71.28;44.13;;;;;;;18.53;100.00;101317.34;5094496;28;20231;-76
2021/06/06 03:56:51;;;;;;;64.40;42.72;;;;;;;18.40;100.00;101317.38;5064714;28;20229;-73
2021/06/06 03:59:32;;;;;;;71.03;44.42;;;;;;;18.55;100.00;101312.34;5079627;28;20202;-74
2021/06/06 04:02:04;;;;;;;68.72;44.38;;;;;;;18.53;100.00;101311.84;5087088;28;20614;-76
2021/06/06 04:04:53;;;;;;;73.15;44.55;;;;;;;18.56;100.00;101319.50;5083947;28;20200;-74
2021/06/06 04:07:42;;;;;;;78.90;46.20;;;;;;;18.48;100.00;101317.47;5078221;28;20218;-75
2021/06/06 04:10:24;;;;;;;86.32;46.60;;;;;;;18.32;100.00;101309.84;5047982;28;20202;-74
2021/06/06 04:13:12;;;;;;;82.28;46.15;;;;;;;18.52;100.00;101324.78;5035288;28;20203;-74
2021/06/06 04:16:09;;;;;;;85.05;45.55;;;;;;;18.35;100.00;101317.47;5073666;28;20222;-75
2021/06/06 04:18:46;;;;;;;73.10;43.30;;;;;;;18.26;100.00;101320.13;5075337;28;20195;-74
2021/06/06 04:21:34;;;;;;;87.80;44.30;;;;;;;18.28;100.00;101323.41;5073808;28;20248;-73
2021/06/06 04:24:10;;;;;;;74.63;43.75;;;;;;;18.33;100.00;101325.22;5074194;28;20237;-74
2021/06/06 04:26:57;;;;;;;83.70;45.33;;;;;;;18.40;100.00;101312.66;5060081;28;20651;-75
2021/06/06 04:29:55;;;;;;;89.50;45.65;;;;;;;18.36;100.00;101319.91;5076990;28;20594;-73
2021/06/06 04:32:47;;;;;;;78.72;43.10;;;;;;;18.17;100.00;101321.97;5068523;28;20294;-73
2021/06/06 04:35:27;;;;;;;85.15;42.70;;;;;;;18.18;100.00;101306.28;5052932;28;20225;-75
2021/06/06 04:38:12;;;;;;;78.10;43.03;;;;;;;18.08;100.00;101316.66;5078283;28;20230;-74
2021/06/06 04:40:45;;;;;;;70.95;41.55;;;;;;;18.19;100.00;101313.41;5076670;28;20227;-75
2021/06/06 04:43:24;;;;;;;74.13;41.67;;;;;;;18.32;100.00;101312.59;5077259;28;20665;-72
2021/06/06 04:46:11;;;;;;;75.15;39.78;;;;;;;18.29;100.00;101319.50;5054727;28;20226;-74
2021/06/06 04:48:57;;;;;;;73.07;39.45;;;;;;;18.32;100.00;101320.84;5054704;28;20547;-73
2021/06/06 04:51:30;;;;;;;76.60;40.05;;;;;;;18.29;100.00;101324.19;5071192;28;20287;-74
2021/06/06 04:54:04;;;;;;;76.20;41.47;;;;;;;18.29;100.00;101330.50;5083085;28;20179;-73
2021/06/06 04:56:51;;;;;;;68.68;40.65;;;;;;;18.26;100.00;101330.31;5054738;28;20316;-75
2021/06/06 04:59:52;;;;;;;67.32;39.00;;;;;;;18.29;100.00;101330.50;5063561;28;20223;-75
2021/06/06 05:02:40;;;;;;;66.72;39.47;;;;;;;18.43;100.00;101336.84;5058215;28;20222;-75
2021/06/06 05:05:22;;;;;;;80.63;40.20;;;;;;;18.41;100.00;101328.06;5074804;28;20186;-74
2021/06/06 05:08:20;;;;;;;76.07;39.42;;;;;;;18.45;100.00;101329.09;5077728;28;20213;-73
2021/06/06 05:11:25;;;;;;;70.70;35.53;;;;;;;18.50;100.00;101334.50;5078945;28;20225;-74
2021/06/06 05:14:07;;;;;;;68.05;34.72;;;;;;;18.29;100.00;101335.22;5075810;28;20183;-74
2021/06/06 05:16:37;;;;;;;66.45;34.65;;;;;;;18.15;100.00;101337.97;5034473;28;20225;-73
2021/06/06 05:19:05;;;;;;;69.28;35.40;;;;;;;18.22;100.00;101340.28;5075672;28;20207;-73
2021/06/06 05:21:42;;;;;;;64.47;34.08;;;;;;;18.16;100.00;101325.81;5073499;28;20223;-74
2021/06/06 05:27:43;;;;;;;60.72;32.63;;;;;;;17.78;100.00;101328.22;5058218;28;20260;-77
2021/06/06 05:30:17;;;;;;;68.03;32.97;;;;;;;17.91;100.00;101332.91;5075070;28;20675;-74
2021/06/06 05:33:11;;;;;;;61.08;33.05;;;;;;;18.15;100.00;101340.72;5060742;28;20190;-76
2021/06/06 05:35:55;;;;;;;68.95;32.97;;;;;;;17.99;100.00;101345.97;5055271;28;20218;-73
2021/06/06 05:38:31;;;;;;;62.65;31.70;;;;;;;18.07;100.00;101337.81;5076275;28;20224;-76
2021/06/06 05:41:03;;;;;;;68.07;32.35;;;;;;;18.15;100.00;101340.72;5035146;28;20225;-75
2021/06/06 05:43:30;;;;;;;66.22;32.75;;;;;;;18.22;100.00;101346.63;5060411;28;20187;-75
2021/06/06 05:46:17;;;;;;;64.45;31.08;;;;;;;18.29;100.00;101347.03;5061673;28;20238;-74
2021/06/06 05:48:48;;;;;;;63.20;31.80;;;;;;;18.18;100.00;101342.84;5078201;28;20592;-75
2021/06/06 05:51:43;;;;;;;67.20;31.35;;;;;;;18.05;100.00;101344.75;5061593;28;20246;-74
2021/06/06 05:54:13;;;;;;;65.65;31.15;;;;;;;18.07;100.00;101348.81;5062219;28;20201;-73
2021/06/06 05:56:48;;;;;;;65.05;31.35;;;;;;;18.04;100.00;101351.34;5077767;28;20274;-74
2021/06/06 05:59:38;;;;;;;;;;;;;;;;;;;;;
2021/06/06 06:02:30;;;;;;;58.78;30.27;;;;;;;17.97;100.00;101359.22;5107890;28;20604;-75
2021/06/06 06:05:06;;;;;;;64.50;31.42;;;;;;;18.10;100.00;101347.44;5103261;28;20204;-76
2021/06/06 06:07:47;;;;;;;63.45;30.15;;;;;;;17.96;100.00;101352.06;5095792;28;20244;-74
2021/06/06 06:10:21;;;;;;;64.65;30.13;;;;;;;17.90;100.00;101348.59;5053210;28;20223;-75
2021/06/06 06:13:21;;;;;;;62.03;29.58;;;;;;;18.10;100.00;101367.50;5076008;28;20281;-74
2021/06/06 06:15:53;;;;;;;57.22;29.42;;;;;;;18.16;100.00;101378.09;5085401;28;20225;-75
2021/06/06 06:18:32;;;;;;;60.33;29.17;;;;;;;18.25;100.00;101368.00;5097627;28;20588;-75
2021/06/06 06:21:10;;;;;;;63.97;29.95;;;;;;;18.12;100.00;101368.00;5049751;28;20600;-75
2021/06/06 06:23:44;;;;;;;60.30;29.98;;;;;;;18.20;100.00;101376.38;5048885;28;20274;-74
2021/06/06 06:26:11;;;;;;;57.70;29.83;;;;;;;18.00;100.00;101369.59;5071876;28;20254;-75
2021/06/06 06:28:54;;;;;;;61.75;29.60;;;;;;;17.98;100.00;101375.38;5080892;28;20212;-74
2021/06/06 06:32:07;;;;;;;64.03;29.13;;;;;;;17.93;100.00;101369.16;5079272;28;20302;-78
2021/06/06 06:34:46;;;;;;;66.15;31.00;;;;;;;18.09;100.00;101373.31;5051364;28;20193;-76
2021/06/06 06:38:29;;;;;;;;;;;;;;;;;;;;;
2021/06/06 06:40:57;;;;;;;61.20;29.98;;;;;;;18.09;100.00;101373.31;5072677;28;20249;-75
2021/06/06 06:43:45;;;;;;;61.08;29.70;;;;;;;18.00;100.00;101381.38;5084069;28;20244;-74
2021/06/06 06:46:24;;;;;;;61.95;30.05;;;;;;;17.94;100.00;101381.81;5069242;28;20229;-75
2021/06/06 06:49:06;;;;;;;67.72;31.67;;;;;;;17.94;100.00;101381.81;5074265;28;20214;-77
2021/06/06 06:51:48;;;;;;;62.33;31.58;;;;;;;17.87;100.00;101381.38;5070435;28;20593;-76
2021/06/06 06:54:24;;;;;;;65.40;30.55;;;;;;;18.01;100.00;101382.22;5091406;28;20178;-75
2021/06/06 06:56:52;;;;;;;66.05;31.52;;;;;;;17.91;100.00;101387.91;5054658;28;20233;-74
2021/06/06 06:59:28;;;;;;;65.95;31.58;;;;;;;17.80;100.00;101380.94;5076447;28;20688;-77
2021/06/06 07:02:11;;;;;;;51.65;28.80;;;;;;;17.74;100.00;101387.66;5072701;28;20290;-74
2021/06/06 07:04:38;;;;;;;52.95;28.88;;;;;;;18.10;100.00;101381.25;5076875;28;20183;-74
2021/06/06 07:07:15;;;;;;;52.90;28.08;;;;;;;17.97;100.00;101389.47;5064796;28;20226;-74
2021/06/06 07:10:01;;;;;;;53.80;28.25;;;;;;;18.01;100.00;101393.22;5062078;28;20293;-75
2021/06/06 07:12:46;;;;;;;50.78;27.92;;;;;;;17.82;100.00;101398.78;5064198;23;20245;-74
2021/06/06 07:15:31;;;;;;;52.25;27.27;;;;;;;17.78;100.00;101394.19;5010839;28;20213;-74
2021/06/06 07:18:01;;;;;;;46.35;25.65;;;;;;;17.68;100.00;101399.06;4995382;28;20213;-73
2021/06/06 07:20:36;;;;;;;47.78;25.98;;;;;;;17.86;100.00;101408.06;4964814;28;20229;-74
2021/06/06 07:23:12;;;;;;;48.33;26.83;;;;;;;18.06;100.00;101401.38;5009349;28;20192;-75
2021/06/06 07:26:02;;;;;;;46.20;27.23;;;;;;;18.04;100.00;101398.94;4998844;28;20221;-74
2021/06/06 07:28:47;;;;;;;50.67;27.02;;;;;;;18.11;100.00;101404.88;5000964;28;20270;-77
2021/06/06 07:31:24;;;;;;;47.80;25.60;;;;;;;18.09;100.00;101407.09;4997831;28;20220;-75
2021/06/06 07:33:56;;;;;;;45.15;24.70;;;;;;;18.28;100.00;101399.63;4996592;28;20622;-75
2021/06/06 07:36:28;;;;;;;43.50;25.05;;;;;;;18.38;100.00;101410.41;4962886;28;20225;-75
2021/06/06 07:39:07;;;;;;;44.20;24.90;;;;;;;18.39;100.00;101412.88;4996105;28;20213;-75
2021/06/06 07:41:42;;;;;;;38.53;23.52;;;;;;;18.44;100.00;101404.50;5011123;28;20226;-75
2021/06/06 07:44:13;;;;;;;45.15;24.08;;;;;;;18.25;100.00;101423.03;4994831;28;20208;-76
2021/06/06 07:46:42;;;;;;;41.30;22.95;;;;;;;18.24;100.00;101420.56;5009360;28;20630;-74
2021/06/06 07:49:34;;;;;;;41.90;23.48;;;;;;;18.44;100.00;101415.50;4995531;28;20217;-74
2021/06/06 07:52:10;;;;;;;39.45;22.15;;;;;;;18.33;100.00;101416.84;4989672;28;20302;-74
2021/06/06 07:54:37;;;;;;;37.03;21.88;;;;;;;18.43;100.00;101413.88;4976795;28;20198;-75
2021/06/06 07:57:07;;;;;;;33.63;21.40;;;;;;;18.58;100.00;101419.06;5009609;28;20237;-75
2021/06/06 07:59:42;;;;;;;36.30;21.58;;;;;;;18.60;100.00;101419.59;5011516;28;20285;-74
2021/06/06 08:02:24;;;;;;;32.88;20.88;;;;;;;18.81;100.00;101415.28;4993394;28;20731;-74
2021/06/06 08:05:10;;;;;;;34.42;21.17;;;;;;;18.90;100.00;101417.03;5014377;28;20197;-75
2021/06/06 08:07:40;;;;;;;33.63;20.30;;;;;;;18.88;100.00;101415.69;5010542;28;20216;-75
2021/06/06 08:10:10;;;;;;;30.58;19.80;;;;;;;19.03;100.00;101419.78;5028991;28;20232;-74
2021/06/06 08:12:42;;;;;;;31.65;19.55;;;;;;;19.16;100.00;101421.69;4997684;28;20205;-76
2021/06/06 08:15:18;;;;;;;30.42;20.00;;;;;;;19.01;100.00;101416.53;5012171;28;20257;-74
2021/06/06 08:17:46;;;;;;;27.30;18.65;;;;;;;19.18;100.00;101416.69;5013722;28;20212;-75
2021/06/06 08:20:17;;;;;;;27.05;18.48;;;;;;;19.22;100.00;101423.19;4990563;28;20220;-75
2021/06/06 08:22:52;;;;;;;26.20;18.15;;;;;;;19.30;100.00;101425.22;4996500;28;20208;-73
2021/06/06 08:25:54;;;;;;;23.67;17.42;;;;;;;19.50;100.00;101419.22;5012401;28;20305;-75
2021/06/06 08:28:22;;;;;;;25.50;17.80;;;;;;;19.54;100.00;101423.81;4955705;28;20710;-75
2021/06/06 08:31:02;;;;;;;24.90;17.20;;;;;;;19.15;100.00;101422.00;5021268;28;20220;-74
2021/06/06 08:33:38;;;;;;;22.88;17.15;;;;;;;19.13;100.00;101419.53;5023043;28;20230;-74
2021/06/06 08:36:29;;;;;;;;;;;;;;;;;;;;;
2021/06/06 08:38:56;;;;;;;24.25;16.90;;;;;;;19.06;100.00;101424.66;5023596;28;20208;-74
2021/06/06 08:41:28;;;;;;;24.02;17.23;;;;;;;18.83;100.00;101418.53;5018539;28;20231;-75
2021/06/06 08:44:27;;;;;;;22.00;16.25;;;;;;;18.72;100.00;101400.63;5020271;28;20177;-75
2021/06/06 08:47:04;;;;;;;23.42;16.48;;;;;;;18.97;100.00;101421.03;5018559;28;20705;-74
2021/06/06 08:49:44;;;;;;;22.90;15.90;;;;;;;19.02;100.00;101425.59;5021527;28;20273;-75
2021/06/06 08:52:21;;;;;;;24.35;16.50;;;;;;;18.71;100.00;101426.53;4978673;28;20229;-75
2021/06/06 08:54:57;;;;;;;21.10;16.00;;;;;;;18.47;100.00;101422.34;4996841;28;20178;-75
2021/06/06 08:57:52;;;;;;;21.73;15.07;;;;;;;18.68;100.00;101427.97;4996260;28;20220;-74
2021/06/06 09:00:28;;;;;;;25.42;17.85;;;;;;;18.76;100.00;101431.94;4991129;28;20209;-74
2021/06/06 09:03:20;;;;;;;30.05;19.95;;;;;;;18.75;100.00;101424.78;4995264;28;20190;-75
2021/06/06 09:05:50;;;;;;;30.75;21.02;;;;;;;18.54;100.00;101437.31;5010274;28;20225;-75
2021/06/06 09:08:27;;;;;;;33.40;22.02;;;;;;;18.77;100.00;101436.28;4980238;28;20232;-74
2021/06/06 09:11:00;;;;;;;31.73;20.13;;;;;;;18.81;100.00;101429.03;4993971;28;20229;-74
2021/06/06 09:13:33;;;;;;;31.15;21.05;;;;;;;18.29;100.00;101435.06;4995017;28;20197;-73
2021/06/06 09:16:11;;;;;;;33.42;21.55;;;;;;;18.48;100.00;101438.56;4978913;28;20256;-73
2021/06/06 09:18:46;;;;;;;31.45;20.67;;;;;;;18.48;100.00;101440.47;5010777;28;20629;-74
2021/06/06 09:21:19;;;;;;;35.20;21.30;;;;;;;18.64;100.00;101439.88;5010225;28;20612;-75
2021/06/06 09:23:46;;;;;;;30.63;21.45;;;;;;;18.61;100.00;101448.75;4994035;28;20189;-74
2021/06/06 09:26:27;;;;;;;33.42;21.95;;;;;;;18.76;100.00;101440.19;4993916;28;20315;-75
2021/06/06 09:29:19;;;;;;;30.55;21.25;;;;;;;18.98;100.00;101435.59;4994917;28;20224;-74
2021/06/06 09:31:52;;;;;;;31.67;21.10;;;;;;;18.88;100.00;101445.97;4993054;28;20291;-75
2021/06/06 09:34:27;;;;;;;26.10;19.60;;;;;;;19.00;100.00;101442.41;4994505;28;20212;-75
2021/06/06 09:37:04;;;;;;;26.77;18.65;;;;;;;19.14;100.00;101447.91;5007568;28;20221;-78
2021/06/06 09:39:39;;;;;;;24.70;17.92;;;;;;;19.13;100.00;101455.34;4994888;28;20216;-74
2021/06/06 09:42:35;;;;;;;21.90;17.67;;;;;;;18.99;100.00;101449.06;4993201;28;20239;-75
2021/06/06 09:45:32;;;;;;;24.13;18.00;;;;;;;19.09;100.00;101451.59;5006530;28;20190;-75
2021/06/06 09:48:32;;;;;;;24.40;17.17;;;;;;;19.42;100.00;101459.38;5004525;28;20296;-75
2021/06/06 09:51:09;;;;;;;22.15;16.95;;;;;;;19.54;100.00;101450.56;4977408;28;20605;-72
2021/06/06 09:53:37;;;;;;;29.55;23.42;;;;;;;19.65;100.00;101452.78;5017788;28;20259;-73
2021/06/06 09:56:09;;;;;;;24.67;18.60;;;;;;;19.50;100.00;101461.38;4975816;28;20616;-73
2021/06/06 09:58:38;;;;;;;25.27;17.98;;;;;;;19.40;100.00;101458.88;5017736;28;20221;-72
2021/06/06 10:01:30;;;;;;;24.13;17.92;;;;;;;18.87;100.00;101449.88;5009285;28;20228;-74
2021/06/06 10:04:04;;;;;;;24.13;18.75;;;;;;;19.04;100.00;101468.22;5008082;28;20557;-73
2021/06/06 10:06:37;;;;;;;26.92;20.73;;;;;;;18.95;100.00;101467.31;5015915;28;20280;-75
2021/06/06 10:09:18;;;;;;;32.53;23.23;;;;;;;19.04;100.00;101464.66;5015435;28;20247;-73
2021/06/06 10:11:55;;;;;;;36.50;24.67;;;;;;;18.96;100.00;101459.84;5016213;28;20229;-73
2021/06/06 10:14:32;;;;;;;36.10;25.25;;;;;;;18.88;100.00;101466.91;4983924;28;20268;-73
2021/06/06 10:17:07;;;;;;;34.75;24.02;;;;;;;18.87;100.00;101471.91;4994108;28;20268;-72
2021/06/06 10:19:49;;;;;;;32.92;24.15;;;;;;;18.72;100.00;101472.22;4996119;28;20208;-73
2021/06/06 10:22:25;;;;;;;34.25;24.08;;;;;;;18.69;100.00;101478.31;4976650;28;20228;-73
2021/06/06 10:25:10;;;;;;;33.78;23.20;;;;;;;18.91;100.00;101477.28;5011988;28;20787;-72
2021/06/06 10:27:39;;;;;;;31.25;23.23;;;;;;;19.00;100.00;101489.25;4993636;28;20228;-71
2021/06/06 10:30:13;;;;;;;35.47;25.50;;;;;;;19.12;100.00;101477.69;5010196;28;20278;-75
2021/06/06 10:32:44;;;;;;;33.05;25.02;;;;;;;19.18;100.00;101482.00;4995023;28;20229;-73
2021/06/06 10:35:19;;;;;;;35.15;24.85;;;;;;;19.14;100.00;101465.25;5007374;28;20238;-74
2021/06/06 10:37:47;;;;;;;33.03;24.33;;;;;;;19.28;100.00;101466.88;4982080;28;20899;-73
2021/06/06 10:40:52;;;;;;;32.42;24.30;;;;;;;19.34;100.00;101475.84;5021551;28;20263;-73
2021/06/06 10:43:49;;;;;;;42.55;27.63;;;;;;;19.19;100.00;101476.16;4965610;28;20724;-76
2021/06/06 10:46:25;;;;;;;53.42;37.25;;;;;;;18.87;100.00;101471.91;4987682;28;20212;-73
2021/06/06 10:49:17;;;;;;;48.17;31.80;;;;;;;18.78;100.00;101482.00;4966509;28;20208;-72
2021/06/06 10:51:56;;;;;;;49.70;31.70;;;;;;;18.85;100.00;101477.72;4999689;28;20213;-75
2021/06/06 10:54:37;;;;;;;45.20;31.52;;;;;;;18.68;100.00;101472.00;4989196;28;20189;-74
2021/06/06 10:57:22;;;;;;;49.38;32.90;;;;;;;18.82;100.00;101478.31;5013723;28;20220;-73
2021/06/06 11:00:18;;;;;;;49.25;31.52;;;;;;;18.67;100.00;101473.09;5014416;28;20645;-74
2021/06/06 11:02:50;;;;;;;52.25;32.33;;;;;;;18.54;100.00;101482.19;4989946;28;20725;-74
2021/06/06 11:05:35;;;;;;;49.40;32.53;;;;;;;18.80;100.00;101479.75;4973209;28;20193;-75
2021/06/06 11:08:26;;;;;;;52.33;32.33;;;;;;;19.00;100.00;101469.97;4959935;28;20263;-73
2021/06/06 11:11:09;;;;;;;46.13;31.15;;;;;;;18.66;100.00;101479.75;4958652;28;20229;-74
2021/06/06 11:13:39;;;;;;;48.92;31.30;;;;;;;18.89;100.00;101484.22;4975698;28;20750;-72
2021/06/06 11:16:28;;;;;;;47.53;30.10;;;;;;;18.97;100.00;101476.09;4956780;28;20247;-73
2021/06/06 11:18:58;;;;;;;49.33;30.10;;;;;;;19.30;100.00;101475.66;4961096;28;20213;-71
2021/06/06 11:21:47;;;;;;;47.70;30.88;;;;;;;19.42;100.00;101477.84;4988803;28;20326;-72
2021/06/06 11:24:39;;;;;;;43.30;28.75;;;;;;;19.13;100.00;101480.16;4945993;28;20667;-74
2021/06/06 11:27:08;;;;;;;40.15;29.25;;;;;;;19.27;100.00;101483.72;4962618;28;20229;-73
2021/06/06 11:30:05;;;;;;;;;;;;;;;;;;;;;
2021/06/06 11:32:43;;;;;;;39.33;28.35;;;;;;;19.64;100.00;101477.91;4973463;28;20297;-75
2021/06/06 11:35:19;;;;;;;40.30;28.33;;;;;;;19.71;100.00;101481.84;4963141;28;20189;-73
2021/06/06 11:37:51;;;;;;;42.40;29.75;;;;;;;19.65;100.00;101487.78;4992032;28;20185;-73
2021/06/06 11:40:19;;;;;;;39.40;28.13;;;;;;;19.75;100.00;101480.91;4960851;28;20593;-73
2021/06/06 11:42:53;;;;;;;37.20;26.30;;;;;;;19.65;100.00;101480.34;4983358;28;20185;-73
2021/06/06 11:45:31;;;;;;;38.45;27.67;;;;;;;19.97;100.00;101489.22;4977014;28;20606;-73
2021/06/06 11:48:10;;;;;;;36.88;27.20;;;;;;;20.01;100.00;101483.88;4979258;28;20272;-73
2021/06/06 11:50:46;;;;;;;41.08;28.88;;;;;;;19.66;100.00;101483.91;4961972;28;20224;-74
2021/06/06 11:53:34;;;;;;;38.63;28.55;;;;;;;19.27;100.00;101482.88;4976423;28;20184;-72
2021/06/06 11:56:18;;;;;;;37.50;26.42;;;;;;;19.65;100.00;101482.28;4999916;28;20278;-75
2021/06/06 11:58:59;;;;;;;41.05;28.50;;;;;;;19.70;100.00;101481.00;4998191;28;20216;-73
2021/06/06 12:01:28;;;;;;;37.13;26.35;;;;;;;19.67;100.00;101481.66;5004639;28;20303;-73
2021/06/06 12:04:11;;;;;;;36.55;26.50;;;;;;;20.09;100.00;101479.25;4998806;28;20666;-75
2021/06/06 12:06:41;;;;;;;37.83;26.95;;;;;;;20.48;100.00;101471.84;4999519;28;20220;-73
2021/06/06 12:09:30;;;;;;;34.20;25.63;;;;;;;20.49;100.00;101467.97;5013065;28;20197;-74
2021/06/06 12:12:20;;;;;;;34.75;25.30;;;;;;;20.73;100.00;101476.72;4990342;28;20619;-74
2021/06/06 12:15:07;;;;;;;31.13;23.38;;;;;;;20.55;100.00;101477.72;4963843;28;20197;-75
2021/06/06 12:17:37;;;;;;;30.98;23.30;;;;;;;20.57;100.00;101475.47;5002067;28;20685;-74